Time;durP1;ratioP1;P1;durP2;ratioP2;P2;SDS_P1;SDS_P2;PMS_P1;PMS_P2;Temp;Humidity;BMP_temperature;BMP_pressure;BME280_temperature;BME280_humidity;BME280_pressure;Samples;Min_cycle;Max_cycle;Signal;HPM_P1;HPM_P2
2022/06/18 00:02:15;;;;;;;3.92;3.83;;;18.10;99.90;;;;;;4161107;28;20056;-43
2022/06/18 00:04:36;;;;;;;4.82;4.40;;;18.10;99.90;;;;;;4145839;28;20434;-43
2022/06/18 00:07:05;;;;;;;5.03;4.75;;;18.20;99.90;;;;;;4160419;28;20052;-44
2022/06/18 00:09:29;;;;;;;5.07;4.85;;;18.40;99.90;;;;;;4161626;28;20052;-43
2022/06/18 00:14:33;;;;;;;4.57;4.28;;;18.40;99.90;;;;;;4161698;28;20148;-44
2022/06/18 00:16:54;;;;;;;3.95;3.83;;;18.30;99.90;;;;;;4145918;28;20057;-46
2022/06/18 00:19:14;;;;;;;4.40;4.20;;;18.40;99.90;;;;;;4161577;28;20115;-44
2022/06/18 00:21:35;;;;;;;4.85;4.55;;;18.40;99.90;;;;;;4162112;28;20516;-45
2022/06/18 00:23:55;;;;;;;4.75;4.13;;;18.40;99.90;;;;;;4160933;28;20221;-43
2022/06/18 00:26:16;;;;;;;4.80;4.50;;;18.40;99.90;;;;;;4145280;28;20539;-43
2022/06/18 00:28:36;;;;;;;5.28;5.05;;;18.40;99.90;;;;;;4155002;28;20052;-44
2022/06/18 00:30:58;;;;;;;4.72;4.53;;;18.10;99.90;;;;;;4161414;28;20060;-44
2022/06/18 00:33:20;;;;;;;6.25;5.72;;;18.00;99.90;;;;;;4162116;28;20578;-43
2022/06/18 00:35:42;;;;;;;4.30;4.07;;;18.00;99.90;;;;;;4161285;28;20099;-44
2022/06/18 00:38:05;;;;;;;6.35;4.35;;;18.00;99.90;;;;;;4153813;28;20474;-44
2022/06/18 00:40:32;;;;;;;4.00;3.88;;;18.20;99.90;;;;;;4161579;28;20528;-45
2022/06/18 00:42:56;;;;;;;4.38;4.18;;;18.30;99.90;;;;;;4160920;28;20103;-44
2022/06/18 00:45:27;;;;;;;4.47;4.28;;;18.30;99.90;;;;;;4160537;28;20175;-45
2022/06/18 00:48:09;;;;;;;3.83;3.67;;;18.20;99.90;;;;;;4161162;28;20171;-45
2022/06/18 00:50:46;;;;;;;4.32;4.13;;;18.10;99.90;;;;;;4161503;28;20048;-43
2022/06/18 00:53:51;;;;;;;3.50;3.35;;;18.00;99.90;;;;;;4161331;28;20115;-44
2022/06/18 00:56:49;;;;;;;3.80;3.55;;;17.80;99.90;;;;;;4159057;28;20052;-45
2022/06/18 00:59:44;;;;;;;3.67;2.83;;;17.70;99.90;;;;;;4158345;28;20052;-44
2022/06/18 01:02:06;;;;;;;3.00;2.90;;;17.60;99.90;;;;;;4158826;28;20107;-44
2022/06/18 01:04:33;;;;;;;3.88;3.67;;;17.60;99.90;;;;;;4159066;28;20060;-44
2022/06/18 01:06:58;;;;;;;3.78;3.58;;;17.60;99.90;;;;;;4148680;28;20060;-46
2022/06/18 01:09:19;;;;;;;4.30;4.10;;;17.50;99.90;;;;;;4158475;28;20437;-46
2022/06/18 01:11:40;;;;;;;4.57;4.47;;;17.50;99.90;;;;;;4158873;28;20088;-45
2022/06/18 01:14:05;;;;;;;4.53;4.32;;;17.40;99.90;;;;;;4159062;28;20425;-44
2022/06/18 01:16:25;;;;;;;4.30;4.05;;;17.30;99.90;;;;;;4149264;28;20100;-47
2022/06/18 01:18:50;;;;;;;5.47;5.22;;;17.20;99.90;;;;;;4158163;28;20055;-44
2022/06/18 01:21:34;;;;;;;6.88;4.63;;;17.00;99.90;;;;;;4158698;28;20064;-44
2022/06/18 01:24:21;;;;;;;4.85;4.75;;;16.90;99.90;;;;;;4142740;28;20061;-44
2022/06/18 01:26:46;;;;;;;5.95;5.10;;;17.00;99.90;;;;;;4157928;28;20057;-43
2022/06/18 01:29:06;;;;;;;6.25;6.00;;;17.00;99.90;;;;;;4161088;28;20107;-44
2022/06/18 01:31:27;;;;;;;4.30;4.10;;;17.00;99.90;;;;;;4160975;28;20441;-47
2022/06/18 01:33:49;;;;;;;5.97;5.68;;;17.00;99.90;;;;;;4160833;28;20488;-44
2022/06/18 01:36:11;;;;;;;5.43;5.22;;;17.10;99.90;;;;;;4161036;28;20127;-44
2022/06/18 01:38:33;;;;;;;6.63;6.32;;;17.10;99.90;;;;;;4160600;28;20111;-44
2022/06/18 01:43:46;;;;;;;5.30;5.20;;;17.20;99.90;;;;;;4160175;28;19975;-44
2022/06/18 01:46:07;;;;;;;;;;;17.20;99.90;;;;;;4145105;28;20053;-45
2022/06/18 01:48:33;;;;;;;5.30;5.07;;;17.20;99.90;;;;;;4154461;28;19931;-44
2022/06/18 01:51:08;;;;;;;4.82;4.45;;;17.20;99.90;;;;;;4160929;28;20465;-43
2022/06/18 01:53:45;;;;;;;5.28;4.93;;;17.10;99.90;;;;;;4160916;28;20064;-46
2022/06/18 01:56:15;;;;;;;4.28;4.18;;;17.00;99.90;;;;;;4144844;28;20813;-47
2022/06/18 01:58:41;;;;;;;6.00;5.70;;;17.10;99.90;;;;;;4159262;28;20168;-44
2022/06/18 02:01:06;;;;;;;4.38;4.22;;;17.00;99.90;;;;;;4160840;28;20056;-45
2022/06/18 02:03:27;;;;;;;5.63;5.30;;;16.90;99.90;;;;;;4160457;28;20059;-43
2022/06/18 02:05:48;;;;;;;4.80;4.45;;;16.90;99.90;;;;;;4160655;28;20143;-44
2022/06/18 02:08:12;;;;;;;5.38;4.97;;;16.90;99.90;;;;;;4160209;28;20107;-43
2022/06/18 02:10:41;;;;;;;5.00;4.75;;;16.80;99.90;;;;;;4160772;28;20511;-46
2022/06/18 02:13:03;;;;;;;7.68;4.70;;;16.70;99.90;;;;;;4147215;28;20108;-45
2022/06/18 02:15:39;;;;;;;5.57;5.38;;;16.60;99.90;;;;;;4160702;28;20392;-43
2022/06/18 02:18:06;;;;;;;5.70;5.50;;;16.60;99.90;;;;;;4153870;28;20103;-46
2022/06/18 02:20:29;;;;;;;5.65;5.45;;;16.50;99.90;;;;;;4163109;28;20056;-44
2022/06/18 02:22:53;;;;;;;5.13;4.50;;;16.40;99.90;;;;;;4163434;28;20048;-44
2022/06/18 02:25:16;;;;;;;4.35;4.22;;;16.40;99.90;;;;;;4163864;28;20087;-44
2022/06/18 02:27:39;;;;;;;4.57;4.47;;;16.40;99.90;;;;;;4146964;28;20104;-45
2022/06/18 02:30:01;;;;;;;4.82;4.72;;;16.30;99.90;;;;;;4159148;28;20566;-45
2022/06/18 02:32:37;;;;;;;5.05;4.55;;;16.40;99.90;;;;;;4163420;28;20103;-46
2022/06/18 02:34:59;;;;;;;5.07;4.97;;;16.30;99.90;;;;;;4163817;28;20107;-45
2022/06/18 02:37:25;;;;;;;5.90;5.30;;;16.30;99.90;;;;;;4147149;28;20528;-44
2022/06/18 02:40:01;;;;;;;5.97;5.60;;;16.10;99.90;;;;;;4159481;28;20095;-44
2022/06/18 02:42:22;;;;;;;5.30;4.55;;;16.20;99.90;;;;;;4163387;28;20168;-45
2022/06/18 02:44:45;;;;;;;5.47;5.28;;;16.20;99.90;;;;;;4163661;28;20052;-46
2022/06/18 02:47:08;;;;;;;6.00;5.55;;;16.20;99.90;;;;;;4163384;28;20088;-45
2022/06/18 02:49:29;;;;;;;6.18;5.78;;;16.30;99.90;;;;;;4163467;28;20056;-44
2022/06/18 02:51:50;;;;;;;5.70;5.53;;;16.40;99.90;;;;;;4162922;28;20052;-42
2022/06/18 02:54:11;;;;;;;6.20;5.80;;;16.30;99.90;;;;;;4163487;28;20049;-44
2022/06/18 02:56:32;;;;;;;6.07;5.72;;;16.30;99.90;;;;;;4163279;28;20063;-43
2022/06/18 02:58:52;;;;;;;5.95;5.75;;;16.20;99.90;;;;;;4162873;28;20104;-44
2022/06/18 03:01:16;;;;;;;5.32;5.22;;;16.20;99.90;;;;;;4157809;28;20049;-45
2022/06/18 03:03:41;;;;;;;4.90;4.80;;;16.30;99.90;;;;;;4146716;28;20409;-47
2022/06/18 03:06:03;;;;;;;4.35;4.25;;;16.20;99.90;;;;;;4146682;28;20437;-44
2022/06/18 03:08:27;;;;;;;5.15;4.72;;;16.10;99.90;;;;;;4158285;28;20048;-45
2022/06/18 03:13:26;;;;;;;5.03;4.93;;;16.00;99.90;;;;;;4162783;28;20409;-44
2022/06/18 03:15:49;;;;;;;4.40;4.13;;;16.10;99.90;;;;;;4163107;28;20052;-47
2022/06/18 03:18:10;;;;;;;4.25;3.85;;;16.10;99.90;;;;;;4161842;28;20064;-44
2022/06/18 03:20:43;;;;;;;4.43;4.22;;;16.00;99.90;;;;;;4162739;28;20128;-43
2022/06/18 03:23:05;;;;;;;5.22;4.82;;;15.90;99.90;;;;;;4162319;28;20055;-45
2022/06/18 03:25:25;;;;;;;4.45;4.35;;;16.00;99.90;;;;;;4162580;28;20358;-44
2022/06/18 03:27:46;;;;;;;3.50;3.25;;;16.00;99.90;;;;;;4162650;28;20096;-45
2022/06/18 03:30:07;;;;;;;4.68;4.55;;;16.00;99.90;;;;;;4162610;28;20191;-44
2022/06/18 03:32:28;;;;;;;4.18;3.95;;;16.00;99.90;;;;;;4162047;28;20083;-44
2022/06/18 03:34:48;;;;;;;6.43;5.25;;;15.90;99.90;;;;;;4162395;28;20055;-46
2022/06/18 03:37:09;;;;;;;4.60;4.50;;;15.80;99.90;;;;;;4162623;28;20057;-45
2022/06/18 03:39:30;;;;;;;4.03;3.92;;;15.80;99.90;;;;;;4162524;28;20067;-45
2022/06/18 03:41:50;;;;;;;4.60;4.40;;;15.90;99.90;;;;;;4162818;28;20534;-45
2022/06/18 03:44:11;;;;;;;4.28;4.10;;;15.80;99.90;;;;;;4157972;28;20064;-47
2022/06/18 03:46:35;;;;;;;4.38;4.07;;;15.80;99.90;;;;;;4162457;28;20107;-44
2022/06/18 03:48:59;;;;;;;3.60;3.50;;;15.70;99.90;;;;;;4161901;28;20048;-45
2022/06/18 03:51:21;;;;;;;3.92;3.83;;;15.60;99.90;;;;;;4146136;28;20064;-43
2022/06/18 03:53:42;;;;;;;3.88;3.78;;;15.60;99.90;;;;;;4146079;28;20045;-47
2022/06/18 03:56:04;;;;;;;4.20;4.00;;;15.60;99.90;;;;;;4156241;28;20052;-45
2022/06/18 03:58:27;;;;;;;4.68;4.38;;;15.60;99.90;;;;;;4162343;28;20103;-43
2022/06/18 04:00:47;;;;;;;;;;;15.60;99.90;;;;;;4161786;28;20133;-47
2022/06/18 04:03:08;;;;;;;3.90;3.80;;;15.70;99.90;;;;;;4162093;28;19986;-44
2022/06/18 04:05:31;;;;;;;4.15;4.05;;;15.70;99.90;;;;;;4162003;28;20519;-43
2022/06/18 04:07:52;;;;;;;4.82;4.47;;;15.80;99.90;;;;;;4162022;28;20048;-45
2022/06/18 04:10:18;;;;;;;4.38;4.28;;;15.70;99.90;;;;;;4161589;28;20575;-45
2022/06/18 04:12:39;;;;;;;4.93;4.82;;;15.70;99.90;;;;;;4161462;28;20056;-45
2022/06/18 04:15:00;;;;;;;4.72;4.40;;;15.60;99.90;;;;;;4162073;28;20060;-45
2022/06/18 04:17:21;;;;;;;4.10;3.92;;;15.50;99.90;;;;;;4160091;28;20412;-45
2022/06/18 04:19:42;;;;;;;4.43;4.13;;;15.50;99.90;;;;;;4162064;28;20056;-44
2022/06/18 04:22:03;;;;;;;4.45;4.28;;;15.40;99.90;;;;;;4161576;28;20099;-44
2022/06/18 04:24:23;;;;;;;7.90;4.45;;;15.50;99.90;;;;;;4161596;28;20132;-48
2022/06/18 04:26:44;;;;;;;6.68;4.43;;;15.50;99.90;;;;;;4161344;28;20056;-44
2022/06/18 04:29:04;;;;;;;4.40;4.30;;;15.70;99.90;;;;;;4161663;28;20571;-46
2022/06/18 04:31:25;;;;;;;4.07;3.92;;;15.70;99.90;;;;;;4161473;28;20251;-44
2022/06/18 04:33:46;;;;;;;4.47;4.25;;;15.60;99.90;;;;;;4161605;28;20048;-44
2022/06/18 04:36:17;;;;;;;4.57;4.30;;;15.80;99.90;;;;;;4161649;28;20107;-45
2022/06/18 04:38:38;;;;;;;3.33;3.15;;;15.80;99.90;;;;;;4145271;28;20072;-48
2022/06/18 04:40:59;;;;;;;3.92;3.65;;;15.80;99.90;;;;;;4157438;28;20056;-45
2022/06/18 04:43:20;;;;;;;6.82;3.95;;;15.80;99.90;;;;;;4150015;28;20061;-46
2022/06/18 04:45:40;;;;;;;4.22;4.13;;;15.70;99.90;;;;;;4161622;28;20055;-45
2022/06/18 04:48:03;;;;;;;3.92;3.83;;;15.60;99.90;;;;;;4144873;28;20138;-45
2022/06/18 04:50:30;;;;;;;4.03;3.92;;;15.50;99.90;;;;;;4156205;28;20051;-45
2022/06/18 04:52:51;;;;;;;4.07;3.88;;;15.50;99.90;;;;;;4161408;28;20096;-45
2022/06/18 04:55:11;;;;;;;4.85;4.60;;;15.60;99.90;;;;;;4161294;28;20103;-45
2022/06/18 04:57:32;;;;;;;4.32;4.18;;;15.60;99.90;;;;;;4145259;28;20100;-48
2022/06/18 04:59:52;;;;;;;4.40;4.05;;;15.60;99.90;;;;;;4155678;28;20056;-44
2022/06/18 05:02:23;;;;;;;4.82;4.43;;;15.70;99.90;;;;;;4161206;28;20054;-44
2022/06/18 05:04:44;;;;;;;5.03;4.85;;;15.80;99.90;;;;;;4161390;28;20532;-44
2022/06/18 05:07:05;;;;;;;3.95;3.85;;;15.80;99.90;;;;;;4146456;28;20068;-47
2022/06/18 05:09:25;;;;;;;4.45;4.20;;;15.90;99.90;;;;;;4160921;28;20044;-44
2022/06/18 05:11:46;;;;;;;3.28;3.08;;;16.00;99.90;;;;;;4161471;28;20507;-45
2022/06/18 05:14:07;;;;;;;3.78;3.45;;;16.00;99.90;;;;;;4161162;28;20053;-44
2022/06/18 05:16:28;;;;;;;4.30;3.47;;;16.10;99.90;;;;;;4161036;28;20528;-43
2022/06/18 05:18:48;;;;;;;4.30;4.10;;;16.20;99.90;;;;;;4157185;28;20055;-43
2022/06/18 05:21:09;;;;;;;3.45;3.35;;;16.30;99.90;;;;;;4160929;28;20147;-47
2022/06/18 05:23:29;;;;;;;4.63;4.35;;;16.40;99.90;;;;;;4161012;28;20137;-45
2022/06/18 05:25:58;;;;;;;3.00;2.65;;;16.40;99.90;;;;;;4161256;28;20409;-46
2022/06/18 05:28:19;;;;;;;4.13;3.88;;;16.50;99.90;;;;;;4161114;28;20104;-44
2022/06/18 05:30:40;;;;;;;3.63;2.53;;;16.50;99.90;;;;;;4160621;28;20423;-45
2022/06/18 05:33:01;;;;;;;3.33;3.03;;;16.50;99.90;;;;;;4160992;28;20475;-45
2022/06/18 05:35:22;;;;;;;3.78;3.63;;;16.50;99.90;;;;;;4161035;28;20080;-45
2022/06/18 05:37:43;;;;;;;3.67;3.22;;;16.50;99.90;;;;;;4151130;28;20566;-45
2022/06/18 05:40:04;;;;;;;3.53;3.35;;;16.60;99.90;;;;;;4157041;28;20055;-43
2022/06/18 05:42:24;;;;;;;4.80;4.50;;;16.70;99.90;;;;;;4161141;28;20067;-45
2022/06/18 05:44:45;;;;;;;2.88;2.78;;;16.90;99.90;;;;;;4156608;28;20057;-48
2022/06/18 05:47:22;;;;;;;3.38;3.13;;;17.00;99.90;;;;;;4160619;28;20129;-44
2022/06/18 05:49:43;;;;;;;3.45;3.15;;;17.20;99.90;;;;;;4149230;28;20118;-44
2022/06/18 05:52:04;;;;;;;5.65;2.53;;;17.30;99.90;;;;;;4160952;28;20047;-43
2022/06/18 05:54:25;;;;;;;3.22;2.20;;;17.30;99.90;;;;;;4161346;28;20361;-46
2022/06/18 05:56:45;;;;;;;1.50;1.50;;;17.40;99.90;;;;;;4163811;28;20305;-45
2022/06/18 05:59:07;;;;;;;2.40;2.20;;;17.40;99.90;;;;;;4164287;28;20133;-46
2022/06/18 06:01:28;;;;;;;1.17;1.07;;;17.50;99.90;;;;;;4156966;28;20460;-44
2022/06/18 06:03:48;;;;;;;3.53;1.60;;;17.50;99.90;;;;;;4162656;28;20103;-44
2022/06/18 06:06:09;;;;;;;1.63;1.10;;;17.60;99.90;;;;;;4158207;28;20563;-44
2022/06/18 06:08:30;;;;;;;0.90;0.90;;;17.70;99.90;;;;;;4163740;28;20463;-48
2022/06/18 06:13:30;;;;;;;0.90;0.90;;;18.00;99.90;;;;;;4153843;28;20169;-44
2022/06/18 06:15:52;;;;;;;1.20;1.10;;;18.10;99.90;;;;;;4162477;28;20048;-44
2022/06/18 06:18:22;;;;;;;1.17;1.08;;;18.40;99.90;;;;;;4159432;28;20056;-52
2022/06/18 06:20:45;;;;;;;0.90;0.90;;;18.60;99.90;;;;;;4163792;28;20099;-51
2022/06/18 06:23:07;;;;;;;0.93;0.80;;;19.20;99.90;;;;;;4162142;28;20096;-51
2022/06/18 06:25:27;;;;;;;0.85;0.85;;;19.70;99.90;;;;;;4163665;28;20064;-51
2022/06/18 06:27:48;;;;;;;1.77;1.00;;;20.10;99.90;;;;;;4163590;28;20052;-51
2022/06/18 06:30:17;;;;;;;3.95;1.48;;;20.50;99.90;;;;;;4149234;28;20048;-52
2022/06/18 06:32:37;;;;;;;2.03;1.38;;;21.00;99.90;;;;;;4159810;28;20143;-52
2022/06/18 06:35:07;;;;;;;2.67;0.90;;;21.40;99.90;;;;;;4163561;28;20119;-52
2022/06/18 06:37:28;;;;;;;1.20;0.90;;;21.70;99.90;;;;;;4163176;28;20055;-52
2022/06/18 06:39:48;;;;;;;2.25;0.80;;;22.00;99.90;;;;;;4163459;28;20049;-51
2022/06/18 06:42:09;;;;;;;0.90;0.90;;;22.10;99.90;;;;;;4162630;28;20049;-51
2022/06/18 06:44:31;;;;;;;1.85;0.80;;;22.50;99.90;;;;;;4161514;28;20104;-52
2022/06/18 06:46:52;;;;;;;1.93;1.43;;;22.80;99.90;;;;;;4147914;28;20111;-51
2022/06/18 06:49:13;;;;;;;5.60;1.10;;;22.70;99.90;;;;;;4157201;28;20060;-51
2022/06/18 06:51:37;;;;;;;1.70;0.90;;;23.00;99.90;;;;;;4163237;28;20523;-51
2022/06/18 06:53:58;;;;;;;1.65;0.80;;;23.30;99.90;;;;;;4162103;28;20048;-51
2022/06/18 06:59:01;;;;;;;0.80;0.80;;;23.80;99.90;;;;;;4153615;28;20060;-52
2022/06/18 07:01:21;;;;;;;1.35;0.60;;;24.30;99.90;;;;;;4160735;28;20063;-51
2022/06/18 07:03:42;;;;;;;0.70;0.70;;;24.30;99.90;;;;;;4162799;28;20600;-52
2022/06/18 07:06:03;;;;;;;0.60;0.60;;;24.40;99.90;;;;;;4161315;28;20060;-50
2022/06/18 07:08:24;;;;;;;1.25;0.55;;;24.40;99.70;;;;;;4162666;28;20056;-51
2022/06/18 07:10:47;;;;;;;1.42;0.60;;;24.40;99.40;;;;;;4157321;28;20047;-52
2022/06/18 07:13:07;;;;;;;0.95;0.70;;;24.40;99.10;;;;;;4161743;28;20052;-52
2022/06/18 07:15:29;;;;;;;1.52;0.60;;;24.50;99.90;;;;;;4162606;28;20052;-51
2022/06/18 07:17:49;;;;;;;0.73;0.73;;;24.90;99.90;;;;;;4154686;28;20048;-48
2022/06/18 07:20:16;;;;;;;0.60;0.60;;;25.10;99.90;;;;;;4160373;28;20669;-51
2022/06/18 07:22:36;;;;;;;1.65;0.80;;;25.40;99.40;;;;;;4161241;28;20528;-51
2022/06/18 07:24:57;;;;;;;3.70;0.70;;;25.60;99.30;;;;;;4156477;28;20063;-51
2022/06/18 07:27:18;;;;;;;1.77;0.68;;;25.80;98.70;;;;;;4161248;28;20432;-52
2022/06/18 07:29:39;;;;;;;0.80;0.70;;;26.20;99.70;;;;;;4153386;28;20337;-52
2022/06/18 07:32:08;;;;;;;1.30;0.60;;;26.40;98.80;;;;;;4162288;28;20122;-50
2022/06/18 07:34:29;;;;;;;0.50;0.50;;;26.60;97.80;;;;;;4155060;28;20132;-50
2022/06/18 07:36:49;;;;;;;1.50;0.60;;;26.70;96.30;;;;;;4160921;28;20103;-52
2022/06/18 07:39:10;;;;;;;0.90;0.90;;;26.60;96.80;;;;;;4161743;28;20503;-51
2022/06/18 07:41:49;;;;;;;1.58;0.68;;;26.90;97.90;;;;;;4148006;28;20060;-51
2022/06/18 07:44:11;;;;;;;4.15;0.60;;;27.20;98.00;;;;;;4162140;28;20060;-52
2022/06/18 07:46:32;;;;;;;2.15;0.70;;;27.60;97.20;;;;;;4148545;28;20332;-52
2022/06/18 07:48:52;;;;;;;2.08;0.68;;;27.70;97.40;;;;;;4161766;28;20056;-51
2022/06/18 07:51:13;;;;;;;0.70;0.60;;;28.10;96.80;;;;;;4161626;28;20053;-51
2022/06/18 07:53:34;;;;;;;1.75;0.60;;;28.50;97.40;;;;;;4156083;28;20412;-52
2022/06/18 07:55:56;;;;;;;0.57;0.57;;;28.50;95.00;;;;;;4162058;28;20575;-49
2022/06/18 07:58:17;;;;;;;0.50;0.50;;;28.50;95.50;;;;;;4162017;28;20051;-51
2022/06/18 08:00:42;;;;;;;0.85;0.50;;;28.70;93.20;;;;;;4161809;28;20059;-51
2022/06/18 08:03:05;;;;;;;0.60;0.60;;;28.90;93.20;;;;;;4162173;28;20123;-51
2022/06/18 08:05:27;;;;;;;0.47;0.47;;;29.00;94.40;;;;;;4162296;28;20048;-51
2022/06/18 08:07:48;;;;;;;0.50;0.50;;;29.20;93.40;;;;;;4161560;28;20368;-52
2022/06/18 08:10:34;;;;;;;1.10;0.40;;;29.30;94.10;;;;;;4159586;28;20163;-52
2022/06/18 08:12:54;;;;;;;1.27;0.50;;;29.70;92.90;;;;;;4159328;28;20162;-52
2022/06/18 08:15:15;;;;;;;1.83;0.40;;;29.70;91.40;;;;;;4157970;28;20044;-52
2022/06/18 08:17:36;;;;;;;0.40;0.40;;;29.90;91.50;;;;;;4159279;28;20052;-52
2022/06/18 08:19:57;;;;;;;0.50;0.50;;;30.30;90.30;;;;;;4156265;28;20514;-52
2022/06/18 08:22:19;;;;;;;0.65;0.50;;;30.50;90.80;;;;;;4159829;28;20157;-52
2022/06/18 08:24:40;;;;;;;0.73;0.50;;;30.70;90.00;;;;;;4159261;28;20059;-53
2022/06/18 08:27:01;;;;;;;0.75;0.40;;;30.70;89.80;;;;;;4156826;28;20534;-52
2022/06/18 08:29:24;;;;;;;0.95;0.40;;;30.70;89.00;;;;;;4160891;28;20598;-52
2022/06/18 08:31:45;;;;;;;0.52;0.40;;;30.30;86.80;;;;;;4150324;28;20103;-51
2022/06/18 08:34:06;;;;;;;4.10;0.43;;;30.20;84.30;;;;;;4159888;28;20050;-52
2022/06/18 08:36:27;;;;;;;2.60;0.40;;;30.10;86.00;;;;;;4161456;28;20540;-52
2022/06/18 08:38:49;;;;;;;1.63;0.40;;;30.20;86.70;;;;;;4161407;28;20044;-52
2022/06/18 08:41:12;;;;;;;0.40;0.32;;;30.20;84.80;;;;;;4161415;28;20048;-52
2022/06/18 08:43:57;;;;;;;0.40;0.40;;;30.20;84.70;;;;;;4161179;28;20746;-51
2022/06/18 08:46:31;;;;;;;1.65;0.40;;;30.70;87.60;;;;;;4161244;28;20405;-51
2022/06/18 08:49:07;;;;;;;3.50;0.63;;;31.00;87.80;;;;;;4161199;28;20050;-52
2022/06/18 08:51:37;;;;;;;0.40;0.40;;;31.00;85.60;;;;;;4145162;28;20052;-52
2022/06/18 08:54:06;;;;;;;0.45;0.45;;;31.00;87.30;;;;;;4161349;28;20107;-52
2022/06/18 08:56:44;;;;;;;1.50;0.30;;;30.40;86.30;;;;;;4161439;28;20107;-52
2022/06/18 08:59:14;;;;;;;0.30;0.30;;;30.40;84.70;;;;;;4157215;28;20095;-52
2022/06/18 09:01:49;;;;;;;0.50;0.40;;;30.50;82.20;;;;;;4149161;28;20056;-52
2022/06/18 09:04:27;;;;;;;0.30;0.30;;;30.40;84.30;;;;;;4160060;28;20087;-51
2022/06/18 09:07:06;;;;;;;0.38;0.38;;;30.50;83.90;;;;;;4144692;28;20084;-51
2022/06/18 09:09:43;;;;;;;1.00;0.30;;;30.70;81.80;;;;;;4156814;28;20048;-52
2022/06/18 09:12:22;;;;;;;0.30;0.30;;;30.60;82.10;;;;;;4147943;28;20096;-52
2022/06/18 09:15:11;;;;;;;2.40;0.40;;;30.50;82.50;;;;;;4148736;28;20173;-52
2022/06/18 09:17:50;;;;;;;0.30;0.30;;;31.00;82.40;;;;;;4153701;28;20559;-53
2022/06/18 09:20:19;;;;;;;0.40;0.40;;;31.30;84.50;;;;;;4147667;28;20111;-51
2022/06/18 09:22:46;;;;;;;0.32;0.32;;;31.00;81.00;;;;;;4158921;28;20511;-51
2022/06/18 09:25:15;;;;;;;0.30;0.30;;;31.10;83.20;;;;;;4153610;28;20076;-52
2022/06/18 09:27:48;;;;;;;1.30;0.40;;;31.40;81.70;;;;;;4148785;28;20697;-50
2022/06/18 09:30:39;;;;;;;0.30;0.30;;;31.20;82.30;;;;;;4160871;28;20168;-52
2022/06/18 09:33:05;;;;;;;0.70;0.30;;;31.40;83.10;;;;;;4160339;28;20048;-52
2022/06/18 09:35:30;;;;;;;4.07;0.40;;;31.70;84.20;;;;;;4161201;28;20045;-51
2022/06/18 09:38:06;;;;;;;0.43;0.43;;;31.80;81.30;;;;;;4159116;28;20104;-52
2022/06/18 09:40:38;;;;;;;0.40;0.40;;;31.90;82.90;;;;;;4156227;28;20133;-52
2022/06/18 09:43:22;;;;;;;0.40;0.40;;;32.00;82.10;;;;;;4154619;28;20056;-52
2022/06/18 09:45:46;;;;;;;0.30;0.30;;;31.90;83.50;;;;;;4155785;28;20045;-82
2022/06/18 09:48:07;;;;;;;0.30;0.30;;;31.40;80.00;;;;;;4162703;28;20495;-82
2022/06/18 09:50:49;;;;;;;0.63;0.30;;;31.10;81.90;;;;;;4157643;28;20057;-82
2022/06/18 09:53:18;;;;;;;0.50;0.38;;;31.50;79.40;;;;;;4159961;28;20099;-84
2022/06/18 09:55:44;;;;;;;1.58;0.38;;;31.40;79.60;;;;;;4157436;28;20039;-83
2022/06/18 09:58:10;;;;;;;0.30;0.30;;;31.70;81.70;;;;;;4176192;28;20649;-83
2022/06/18 10:00:33;;;;;;;1.48;0.40;;;31.20;81.80;;;;;;4156452;28;20111;-84
2022/06/18 10:02:56;;;;;;;1.20;0.30;;;31.70;80.40;;;;;;4161207;28;20053;-83
2022/06/18 10:08:02;;;;;;;0.95;0.30;;;32.10;78.80;;;;;;4163901;28;20052;-83
2022/06/18 10:10:27;;;;;;;2.63;0.30;;;31.90;82.30;;;;;;4161818;28;20088;-83
2022/06/18 10:12:53;;;;;;;4.13;0.68;;;31.70;79.40;;;;;;4155265;28;20397;-83
2022/06/18 10:15:17;;;;;;;0.40;0.40;;;31.80;78.30;;;;;;4159808;28;20777;-84
2022/06/18 10:18:18;;;;;;;0.30;0.30;;;31.70;77.00;;;;;;4158448;28;20118;-85
2022/06/18 10:20:44;;;;;;;0.98;0.30;;;31.90;76.70;;;;;;4173094;28;20563;-84
2022/06/18 10:23:19;;;;;;;0.40;0.40;;;31.40;75.50;;;;;;4152292;28;20056;-83
2022/06/18 10:26:05;;;;;;;0.40;0.30;;;31.40;77.30;;;;;;4157032;28;20441;-83
2022/06/18 10:28:54;;;;;;;0.40;0.30;;;31.20;77.10;;;;;;4145109;28;20056;-82
2022/06/18 10:31:21;;;;;;;0.88;0.40;;;31.40;79.50;;;;;;4160153;28;20048;-83
2022/06/18 10:33:53;;;;;;;0.40;0.30;;;31.30;75.60;;;;;;4159851;28;20101;-83
2022/06/18 10:36:19;;;;;;;0.40;0.40;;;31.20;76.60;;;;;;4158952;28;20065;-83
2022/06/18 10:38:43;;;;;;;1.48;0.40;;;31.30;77.30;;;;;;4157434;28;20056;-82
2022/06/18 10:41:17;;;;;;;1.13;0.40;;;31.50;77.70;;;;;;4156761;28;20133;-83
2022/06/18 10:44:06;;;;;;;0.30;0.30;;;32.10;79.50;;;;;;4159070;28;20143;-83
2022/06/18 10:46:33;;;;;;;0.85;0.40;;;32.20;77.80;;;;;;4152366;28;20132;-83
2022/06/18 10:48:59;;;;;;;0.40;0.40;;;32.70;76.60;;;;;;4161546;28;20088;-84
2022/06/18 10:51:23;;;;;;;0.40;0.40;;;32.00;75.30;;;;;;4155456;28;20676;-83
2022/06/18 10:53:54;;;;;;;0.95;0.60;;;32.10;75.00;;;;;;4161325;28;20068;-82
2022/06/18 10:56:18;;;;;;;0.40;0.40;;;31.70;75.20;;;;;;4154672;28;20136;-84
2022/06/18 10:58:50;;;;;;;1.65;0.30;;;31.70;75.00;;;;;;4164204;28;20846;-85
2022/06/18 11:01:15;;;;;;;0.40;0.40;;;31.80;74.70;;;;;;4145740;28;20056;-83
2022/06/18 11:04:05;;;;;;;2.33;0.40;;;31.70;75.30;;;;;;4158383;28;20080;-85
2022/06/18 11:06:27;;;;;;;0.40;0.40;;;31.90;74.30;;;;;;4114396;28;20053;-85
2022/06/18 11:09:05;;;;;;;1.67;0.60;;;31.70;75.40;;;;;;4114252;28;20113;-88
2022/06/18 11:11:36;;;;;;;0.93;0.40;;;31.70;74.70;;;;;;4108215;28;20053;-88
2022/06/18 11:14:14;;;;;;;0.40;0.40;;;32.00;74.80;;;;;;4114299;28;20895;-89
2022/06/18 11:16:44;;;;;;;1.08;0.85;;;32.20;74.90;;;;;;4114558;28;20947;-88
2022/06/18 11:19:18;;;;;;;0.40;0.40;;;32.00;77.30;;;;;;4109891;28;20549;-88
2022/06/18 11:22:07;;;;;;;0.45;0.35;;;32.20;77.60;;;;;;4114891;28;20109;-89
2022/06/18 11:24:35;;;;;;;0.40;0.30;;;32.00;74.60;;;;;;4038258;29;20589;-90
2022/06/18 11:26:59;;;;;;;2.25;0.40;;;32.20;76.00;;;;;;4038234;29;20060;-89
2022/06/18 11:29:36;;;;;;;0.40;0.40;;;32.20;76.10;;;;;;4035665;29;20140;-91
2022/06/18 11:32:00;;;;;;;0.90;0.40;;;32.40;77.00;;;;;;4043620;29;20532;-89
2022/06/18 11:34:51;;;;;;;0.85;0.40;;;32.90;76.80;;;;;;4048579;29;20270;-88
2022/06/18 11:37:26;;;;;;;1.30;0.30;;;32.60;74.80;;;;;;4005193;29;20061;-92
2022/06/18 11:40:12;;;;;;;0.30;0.30;;;32.50;76.70;;;;;;3989977;29;20387;-90
2022/06/18 11:43:00;;;;;;;0.40;0.40;;;32.40;74.70;;;;;;4174871;28;20411;-51
2022/06/18 11:45:36;;;;;;;0.65;0.30;;;32.40;74.70;;;;;;4171537;28;20060;-51
2022/06/18 11:48:25;;;;;;;1.25;0.40;;;32.50;78.10;;;;;;4170681;28;20063;-51
2022/06/18 11:50:54;;;;;;;0.45;0.45;;;32.80;75.10;;;;;;4174339;28;20064;-52
2022/06/18 11:54:05;;;;;;;1.48;0.30;;;32.60;74.50;;;;;;4174798;28;20056;-51
2022/06/18 11:56:43;;;;;;;0.35;0.35;;;32.00;73.60;;;;;;4157609;28;20060;-52
2022/06/18 11:59:35;;;;;;;0.88;0.60;;;32.00;74.90;;;;;;4158153;28;20056;-51
2022/06/18 12:02:03;;;;;;;0.55;0.40;;;32.20;75.50;;;;;;4158037;28;20516;-51
2022/06/18 12:04:34;;;;;;;1.02;0.40;;;32.00;74.50;;;;;;4170855;28;20059;-52
2022/06/18 12:07:16;;;;;;;0.40;0.40;;;32.20;77.70;;;;;;4174502;28;20096;-51
2022/06/18 12:09:37;;;;;;;0.75;0.40;;;32.70;74.40;;;;;;4174159;28;20052;-51
2022/06/18 12:12:17;;;;;;;1.45;0.40;;;32.50;73.70;;;;;;4174110;28;20497;-51
2022/06/18 12:14:49;;;;;;;1.15;0.40;;;32.50;75.70;;;;;;4162674;28;20119;-50
2022/06/18 12:17:25;;;;;;;0.47;0.40;;;32.40;73.60;;;;;;4170085;28;20107;-52
2022/06/18 12:20:08;;;;;;;0.40;0.40;;;31.90;74.10;;;;;;4174213;28;20059;-51
2022/06/18 12:23:01;;;;;;;1.27;0.40;;;32.00;78.30;;;;;;4173255;28;20051;-51
2022/06/18 12:25:59;;;;;;;0.40;0.40;;;32.20;73.80;;;;;;4159617;28;20077;-52
2022/06/18 12:28:46;;;;;;;0.40;0.40;;;32.00;75.70;;;;;;4174398;28;20085;-52
2022/06/18 12:31:28;;;;;;;0.40;0.40;;;32.40;76.00;;;;;;4157762;28;20120;-51
2022/06/18 12:33:49;;;;;;;;;;;32.40;73.40;;;;;;4163131;28;20060;-51
2022/06/18 12:36:54;;;;;;;3.70;0.40;;;32.80;78.50;;;;;;4173532;28;20369;-52
2022/06/18 12:39:21;;;;;;;0.98;0.40;;;32.60;78.50;;;;;;4187387;28;20103;-52
2022/06/18 12:41:55;;;;;;;0.75;0.50;;;32.40;75.50;;;;;;4180388;28;20168;-51
2022/06/18 12:44:24;;;;;;;1.58;0.40;;;32.50;75.30;;;;;;4168621;28;20104;-50
2022/06/18 12:47:19;;;;;;;1.00;0.40;;;32.30;74.70;;;;;;4157644;28;20060;-52
2022/06/18 12:49:51;;;;;;;0.40;0.40;;;31.90;74.10;;;;;;4159946;28;20072;-51
2022/06/18 12:52:55;;;;;;;0.40;0.40;;;32.00;74.50;;;;;;4171873;28;20319;-51
2022/06/18 12:55:33;;;;;;;0.57;0.40;;;32.30;78.60;;;;;;4161647;28;20048;-51
2022/06/18 12:58:07;;;;;;;1.17;0.40;;;32.60;77.20;;;;;;4161667;28;20104;-52
2022/06/18 13:00:43;;;;;;;2.08;0.40;;;32.70;77.20;;;;;;4162858;28;20132;-51
2022/06/18 13:03:25;;;;;;;0.40;0.40;;;32.70;75.60;;;;;;4162542;28;20080;-51
2022/06/18 13:05:54;;;;;;;1.92;0.40;;;32.70;75.50;;;;;;4150739;28;20119;-51